This is the latest recevied weather packets stored in our database for station/object N6WDO. If no packets are shown the sender has not sent any weather packets the latest 10 day(s).
| Time | Temp. | Humidity | Pressure | Rain* | Wind** | Luminosity | Snow |
|---|---|---|---|---|---|---|---|
| 1777830860 | 16.11° C | 80% | 1014.2 hPa | 0 mm | - | 274 W/m² | - |
| 1777830555 | 16.67° C | 80% | 1014.1 hPa | 0 mm | - | 283 W/m² | - |
| 1777830254 | 16.67° C | 80% | 1014.2 hPa | 0 mm | - | 549 W/m² | - |
| 1777829949 | 16.11° C | 81% | 1013.9 hPa | 0 mm | - | 369 W/m² | - |
| 1777829646 | 16.67° C | 79% | 1014.1 hPa | 0 mm | - | 539 W/m² | - |
| 1777829343 | 16.67° C | 78% | 1013.9 hPa | 0 mm | - | 565 W/m² | - |
| 1777829040 | 17.22° C | 78% | 1013.8 hPa | 0 mm | - | 598 W/m² | - |
| 1777828736 | 18.89° C | 74% | 1013.9 hPa | 0 mm | - | 563 W/m² | - |
| 1777828433 | 18.89° C | 74% | 1013.6 hPa | 0 mm | - | 579 W/m² | - |
| 1777828130 | 18.33° C | 75% | 1013.7 hPa | 0 mm | - | 594 W/m² | - |
| 1777827826 | 18.33° C | 75% | 1013.6 hPa | 0 mm | - | 587 W/m² | - |
| 1777827523 | 18.33° C | 73% | 1013.5 hPa | 0 mm | - | 535 W/m² | - |
| 1777827221 | 17.22° C | 78% | 1013.5 hPa | 0 mm | - | 534 W/m² | - |
| 1777826917 | 17.78° C | 76% | 1013.3 hPa | 0 mm | - | 529 W/m² | - |
| 1777826615 | 17.78° C | 75% | 1013.3 hPa | 0 mm | - | 494 W/m² | - |
| 1777826311 | 17.78° C | 76% | 1013.4 hPa | 0 mm | - | 458 W/m² | - |
| 1777826009 | 18.33° C | 74% | 1013.4 hPa | 0 mm | - | 424 W/m² | - |
| 1777825705 | 18.33° C | 74% | 1013.4 hPa | 0 mm | - | 442 W/m² | - |
| 1777825403 | 17.78° C | 75% | 1013.3 hPa | 0 mm | - | 427 W/m² | - |
| 1777825100 | 16.67° C | 79% | 1013.3 hPa | 0 mm | - | 417 W/m² | - |
| 1777824796 | 16.67° C | 81% | 1013.2 hPa | 0 mm | - | 403 W/m² | - |
| 1777824493 | 17.22° C | 78% | 1013.1 hPa | 0 mm | - | 352 W/m² | - |
| 1777824189 | 16.67° C | 77% | 1013.1 hPa | 0 mm | - | 380 W/m² | - |
| 1777823885 | 15.56° C | 81% | 1013.3 hPa | 0 mm | - | 369 W/m² | - |
| 1777823583 | 15.56° C | 82% | 1013.1 hPa | 0 mm | - | 302 W/m² | - |
* Rain latest hour (hover to see other rain measurements)
** Current wind speed in m/s (hover to see current wind gust speed)